world map with SEZ marked

SEZ - Airport

This information may not be accurate or current and is not valid for navigation or flight planning. No warranty of fitness for any purpose is made or implied.

flag of Seychelles

Donate via PayPal

Additional information is available on the NEW Great Circle Mapper

Location
City:  Mahé, Mahé Island, Pointe Larue (Pointe La Rue;Pwent Lari), Seychelles
Near (Alt.):Victoria
Name:Seychelles International Airport
ICAO / IATA:FSIA / SEZ

Details
Type:Airport (Aerodrome, Airfield)
Use:Public/Civil
Latitude:4°40'28"S (-4.674341)
Longitude:55°31'19"E (55.521839)
Datum:WGS 1984
Elevation:10 ft (3 m)
Runways:1
Longest:9800 × 151 ft (2987 × 46 m)

Time
Timezone:UTC+4 (DST+6)
Local Time:

Weather
METAR:FSIA  221000Z VRB08KT 9999 R13///// FEW016 29/23 Q1011 NOSIG
TAF:FSIA  212304Z 2200/2224 16015G25KT 9999 SCT022= TAF MMPR 212327Z 2200/2306 22010KT P6SM SCT015 BKN280 TX29/2218Z TN24/2210Z
FM220400 00000KT P6SM SCT100 BKN280
FM221700 20010KT P6SM SCT020 BKN100 BKN280
FM230200 25006KT P6SM BKN020 BKN080 BKN200 TEMPO 2302/2306 4SM TSRA BKN020CB

Related Locations
Nearby:
Farthest:UAH: 11043 mi / 17772 km
Ua Huka, Marquesas Islands, PF

Find:

   beyond  
but within

Other Information
Maps:
Sources:

  


 


Great Circle Mapper   Great Circle Mapper
Great Circle Mapper FAQ   Great Circle Mapper FAQ
  Karl's Home Page
KLS²   KLS² Home
   GC on Facebook
Airlines of the World   Airlines of the World
Donate via PayPal


Copyright © 2004-2018, Karl L. Swartz. All rights reserved.
All trademarks mentioned herein belong to their respective owners.

Please see credits for attribution and copyright information.

Karl Swartz <karl@kls2.com>
  Powered by FreeBSD
Valid HTML 4.01!
Labeled with ICRA
hCard Microformat
Geo Microformat